Luther, Indiana
Current Conditions -  °F | °C
As of 3:35 PM on Thursday 27 Nov 2014 (Local Time) from KHHG Reporting Station
Overcast Overcast  
Wind Chill: 17°   Ceiling: 1700
Heat Index: 28°   Visibility: 10mi
Dew Point: 23°   Wind: 14mph
Humidity: 81%   Direction: 280°W
Pressure: 30.27"   Gusts: 17mph
Location:  41.056°N, 85.6112°W
Report Text: KHHG 272035Z AUTO 28012G15KT 10SM OVC017 M02/M05 A3027 RMK AO2 T10211050
Loading
Personal Weather Stations






























Interactive Weather Map New forecast layout! Learn more

10-Day Weather Forecast

Advertisements
Track Severe Weather on mobile